This is the latest recevied weather packets stored in our database for station/object WP3OF-5. If no packets are shown the sender has not sent any weather packets the latest 10 day(s).
| Time | Temp. | Humidity | Pressure | Rain* | Wind** | Luminosity | Snow |
|---|---|---|---|---|---|---|---|
| 1777906846 | 30.56° C | 55% | 1016.8 hPa | 0 mm | - | - | - |
| 1777906543 | 30.56° C | 56% | 1017 hPa | 0 mm | - | - | - |
| 1777906238 | 31.11° C | 55% | 1017 hPa | 0 mm | - | - | - |
| 1777905935 | 31.11° C | 55% | 1017 hPa | 0 mm | - | - | - |
| 1777905632 | 30.56° C | 57% | 1017 hPa | 0 mm | - | - | - |
| 1777905329 | 30.56° C | 57% | 1017.1 hPa | 0 mm | - | - | - |
| 1777905027 | 31.11° C | 55% | 1017 hPa | 0 mm | - | - | - |
| 1777904724 | 30.56° C | 57% | 1016.8 hPa | 0 mm | - | - | - |
| 1777904420 | 30° C | 57% | 1017.1 hPa | 0 mm | - | - | - |
| 1777904117 | 30° C | 56% | 1017.1 hPa | 0 mm | - | - | - |
| 1777903814 | 30° C | 56% | 1017.1 hPa | 0 mm | - | - | - |
| 1777903511 | 30° C | 58% | 1017.2 hPa | 0 mm | - | - | - |
| 1777903207 | 29.44° C | 58% | 1017.2 hPa | 0 mm | - | - | - |
| 1777902903 | 29.44° C | 57% | 1017.5 hPa | 0 mm | - | - | - |
| 1777902600 | 28.89° C | 59% | 1017.4 hPa | 0 mm | - | - | - |
| 1777902297 | 29.44° C | 58% | 1017 hPa | 0 mm | - | - | - |
| 1777901995 | 28.89° C | 61% | 1017.2 hPa | 0 mm | - | - | - |
| 1777901693 | 28.89° C | 61% | 1017.1 hPa | 0 mm | - | - | - |
| 1777901390 | 28.33° C | 63% | 1017.3 hPa | 0 mm | - | - | - |
| 1777901087 | 28.89° C | 64% | 1017.1 hPa | 0 mm | - | - | - |
| 1777900784 | 28.33° C | 64% | 1017.1 hPa | 0 mm | - | - | - |
| 1777900482 | 28.33° C | 65% | 1016.8 hPa | 0 mm | - | - | - |
| 1777900179 | 27.78° C | 67% | 1017.3 hPa | 0 mm | - | - | - |
| 1777899875 | 27.78° C | 69% | 1017.1 hPa | 0 mm | - | - | - |
| 1777899572 | 27.22° C | 70% | 1017 hPa | 0 mm | - | - | - |
* Rain latest hour (hover to see other rain measurements)
** Current wind speed in m/s (hover to see current wind gust speed)